createdAt,value
2022-10-01T00:01:16.846Z,96400.66
2022-10-01T00:03:43.905Z,96401.69
2022-10-01T00:06:11.506Z,96413.06
2022-10-01T00:08:40.269Z,96405.41
2022-10-01T00:11:12.398Z,96413.84
2022-10-01T00:13:39.870Z,96416.69
2022-10-01T00:16:12.079Z,96412.75
2022-10-01T00:18:40.969Z,96411.66
2022-10-01T00:21:13.371Z,96415.47
2022-10-01T00:23:40.301Z,96409.44
2022-10-01T00:26:17.646Z,96409.88
2022-10-01T00:28:46.145Z,96411.94
2022-10-01T00:31:14.103Z,96413.31
2022-10-01T00:33:40.612Z,96410.66
2022-10-01T00:36:09.742Z,96404.84
2022-10-01T00:38:37.901Z,96402.47
2022-10-01T00:41:04.754Z,96408.53
2022-10-01T00:43:34.885Z,96402.72
2022-10-01T00:46:07.370Z,96406.41
2022-10-01T00:48:40.259Z,96415.44
2022-10-01T00:51:07.127Z,96403.50
2022-10-01T00:53:34.093Z,96393.13
2022-10-01T00:56:00.715Z,96401.59
2022-10-01T00:58:27.517Z,96393.97
2022-10-01T01:00:55.949Z,96386.88
2022-10-01T01:03:22.805Z,96394.31
2022-10-01T01:05:50.197Z,96395.34
2022-10-01T01:08:17.727Z,96408.59
2022-10-01T01:11:02.371Z,96411.00
2022-10-01T01:13:47.856Z,96402.81
2022-10-01T01:16:25.235Z,96403.09
2022-10-01T01:19:01.815Z,96403.84
2022-10-01T01:22:00.253Z,96406.50
2022-10-01T01:24:47.765Z,96400.13
2022-10-01T01:27:24.335Z,96399.34
2022-10-01T01:30:04.466Z,96395.69
2022-10-01T01:32:48.886Z,96394.81
2022-10-01T01:35:22.090Z,96398.50
2022-10-01T01:37:54.494Z,96401.69
2022-10-01T01:40:22.221Z,96409.41
2022-10-01T01:42:50.712Z,96407.28
2022-10-01T01:45:22.561Z,96411.22
2022-10-01T01:47:51.076Z,96410.44
2022-10-01T01:50:18.696Z,96413.34
2022-10-01T01:52:45.902Z,96405.28
2022-10-01T01:55:12.355Z,96396.34
2022-10-01T01:57:44.009Z,96404.84
2022-10-01T02:00:12.329Z,96409.09
2022-10-01T02:02:41.420Z,96391.13
2022-10-01T02:05:22.289Z,96385.91
2022-10-01T02:08:03.486Z,96393.88
2022-10-01T02:11:00.959Z,96397.50
2022-10-01T02:13:50.374Z,96404.94
2022-10-01T02:16:48.388Z,96408.88
2022-10-01T02:19:30.109Z,96407.28
2022-10-01T02:22:04.843Z,96411.28
2022-10-01T02:24:36.347Z,96417.16
2022-10-01T02:27:08.654Z,96419.22
2022-10-01T02:29:37.755Z,96411.78
2022-10-01T02:32:04.397Z,96405.44
2022-10-01T02:34:31.625Z,96410.75
2022-10-01T02:37:01.272Z,96417.09
2022-10-01T02:39:30.659Z,96421.03
2022-10-01T02:41:59.092Z,96411.31
2022-10-01T02:44:37.936Z,96412.13
2022-10-01T02:47:18.262Z,96412.09
2022-10-01T02:49:44.763Z,96403.88
2022-10-01T02:52:20.861Z,96395.91
2022-10-01T02:54:54.696Z,96396.50
2022-10-01T02:57:24.779Z,96406.31
2022-10-01T02:59:52.025Z,96407.06
2022-10-01T03:02:19.949Z,96411.59
2022-10-01T03:04:48.103Z,96417.41
2022-10-01T03:07:15.987Z,96417.69
2022-10-01T03:09:42.407Z,96418.31
2022-10-01T03:12:10.486Z,96421.22
2022-10-01T03:14:39.188Z,96414.31
2022-10-01T03:17:07.169Z,96419.06
2022-10-01T03:19:33.833Z,96414.56
2022-10-01T03:22:00.303Z,96415.06
2022-10-01T03:24:26.736Z,96432.53
2022-10-01T03:26:53.500Z,96428.34
2022-10-01T03:29:19.917Z,96418.84
2022-10-01T03:31:46.477Z,96414.56
2022-10-01T03:34:13.297Z,96405.88
2022-10-01T03:36:39.780Z,96407.22
2022-10-01T03:39:06.239Z,96407.44
2022-10-01T03:41:32.996Z,96411.97
2022-10-01T03:44:00.683Z,96411.72
2022-10-01T03:46:27.350Z,96412.47
2022-10-01T03:48:55.492Z,96403.00
2022-10-01T03:51:21.895Z,96403.28
2022-10-01T03:53:48.294Z,96400.38
2022-10-01T03:56:15.687Z,96397.47
2022-10-01T03:58:42.184Z,96404.66
2022-10-01T04:01:08.701Z,96408.38
2022-10-01T04:03:35.106Z,96405.00
2022-10-01T04:06:01.501Z,96404.19
2022-10-01T04:08:27.919Z,96395.75
2022-10-01T04:10:54.419Z,96398.66
2022-10-01T04:13:20.907Z,96394.69
2022-10-01T04:15:48.627Z,96391.59
2022-10-01T04:18:17.285Z,96398.44
2022-10-01T04:20:43.811Z,96402.06
2022-10-01T04:23:10.312Z,96400.00
2022-10-01T04:25:36.758Z,96406.06
2022-10-01T04:28:06.348Z,96408.47
2022-10-01T04:30:35.621Z,96409.28
2022-10-01T04:33:02.714Z,96408.50
2022-10-01T04:35:29.799Z,96407.44
2022-10-01T04:38:08.076Z,96408.50
2022-10-01T04:40:36.119Z,96409.63
2022-10-01T04:43:03.972Z,96414.63
2022-10-01T04:45:31.024Z,96422.31
2022-10-01T04:47:58.291Z,96418.09
2022-10-01T04:50:25.858Z,96419.19
2022-10-01T04:52:53.064Z,96420.25
2022-10-01T04:55:21.320Z,96420.47
2022-10-01T04:57:48.250Z,96426.56
2022-10-01T05:00:19.065Z,96431.84
2022-10-01T05:02:46.949Z,96431.06
2022-10-01T05:05:13.375Z,96430.28
2022-10-01T05:07:40.412Z,96428.66
2022-10-01T05:10:16.540Z,96432.13
2022-10-01T05:12:43.844Z,96426.56
2022-10-01T05:15:10.797Z,96431.59
2022-10-01T05:17:37.320Z,96437.44
2022-10-01T05:20:05.730Z,96436.59
2022-10-01T05:22:32.419Z,96432.66
2022-10-01T05:25:00.213Z,96445.38
2022-10-01T05:27:27.553Z,96440.09
2022-10-01T05:29:53.992Z,96435.56
2022-10-01T05:32:20.545Z,96447.41
2022-10-01T05:34:51.197Z,96460.91
2022-10-01T05:37:19.822Z,96459.88
2022-10-01T05:39:46.289Z,96456.19
2022-10-01T05:42:12.695Z,96451.16
2022-10-01T05:44:40.726Z,96441.41
2022-10-01T05:47:07.502Z,96439.00
2022-10-01T05:49:34.254Z,96446.91
2022-10-01T05:52:00.982Z,96457.22
2022-10-01T05:54:29.318Z,96456.66
2022-10-01T05:56:57.228Z,96447.41
2022-10-01T05:59:28.483Z,96451.38
2022-10-01T06:01:57.689Z,96451.84
2022-10-01T06:04:24.243Z,96454.03
2022-10-01T06:06:50.646Z,96463.81
2022-10-01T06:09:17.152Z,96463.47
2022-10-01T06:11:43.602Z,96474.59
2022-10-01T06:14:10.059Z,96474.06
2022-10-01T06:16:36.605Z,96480.41
2022-10-01T06:19:03.174Z,96476.19
2022-10-01T06:21:30.325Z,96473.00
2022-10-01T06:23:56.940Z,96488.34
2022-10-01T06:26:24.154Z,96494.94
2022-10-01T06:28:51.364Z,96488.81
2022-10-01T06:31:19.379Z,96494.09
2022-10-01T06:33:45.873Z,96490.66
2022-10-01T06:36:12.277Z,96503.06
2022-10-01T06:38:38.779Z,96508.38
2022-10-01T06:41:05.370Z,96502.28
2022-10-01T06:43:32.985Z,96496.72
2022-10-01T06:46:04.249Z,96496.44
2022-10-01T06:48:31.531Z,96502.47
2022-10-01T06:50:58.838Z,96505.09
2022-10-01T06:53:27.449Z,96498.22
2022-10-01T06:55:54.560Z,96505.09
2022-10-01T06:58:24.445Z,96516.72
2022-10-01T07:00:51.035Z,96525.16
2022-10-01T07:03:20.767Z,96513.00
2022-10-01T07:05:48.111Z,96515.09
2022-10-01T07:08:14.780Z,96517.72
2022-10-01T07:10:42.073Z,96523.53
2022-10-01T07:13:10.999Z,96525.06
2022-10-01T07:15:37.849Z,96529.53
2022-10-01T07:18:05.155Z,96532.31
2022-10-01T07:20:35.455Z,96527.63
2022-10-01T07:23:02.283Z,96527.91
2022-10-01T07:25:29.661Z,96530.00
2022-10-01T07:28:01.163Z,96526.56
2022-10-01T07:30:28.019Z,96535.00
2022-10-01T07:32:54.477Z,96533.66
2022-10-01T07:35:21.381Z,96540.28
2022-10-01T07:37:48.683Z,96541.84
2022-10-01T07:40:18.171Z,96541.28
2022-10-01T07:42:56.185Z,96529.09
2022-10-01T07:45:24.067Z,96531.25
2022-10-01T07:48:01.748Z,96530.69
2022-10-01T07:50:32.653Z,96529.91
2022-10-01T07:53:00.210Z,96534.91
2022-10-01T07:55:28.357Z,96539.66
2022-10-01T07:57:56.648Z,96542.31
2022-10-01T08:00:25.252Z,96536.25
2022-10-01T08:02:54.277Z,96537.31
2022-10-01T08:05:23.118Z,96538.31
2022-10-01T08:07:49.787Z,96547.53
2022-10-01T08:10:18.324Z,96545.34
2022-10-01T08:12:45.118Z,96551.72
2022-10-01T08:15:16.726Z,96542.72
2022-10-01T08:17:43.995Z,96547.44
2022-10-01T08:20:13.103Z,96555.38
2022-10-01T08:22:42.068Z,96558.03
2022-10-01T08:25:09.322Z,96571.56
2022-10-01T08:27:35.955Z,96571.06
2022-10-01T08:30:02.463Z,96567.53
2022-10-01T08:32:28.889Z,96570.66
2022-10-01T08:34:57.571Z,96563.19
2022-10-01T08:37:27.724Z,96556.31
2022-10-01T08:39:55.664Z,96560.44
2022-10-01T08:42:43.762Z,96568.09
2022-10-01T08:45:17.359Z,96564.09
2022-10-01T08:47:59.839Z,96567.75
2022-10-01T08:50:37.983Z,96564.19
2022-10-01T08:53:11.717Z,96568.34
2022-10-01T08:55:40.149Z,96565.38
2022-10-01T08:58:10.325Z,96561.91
2022-10-01T09:00:42.502Z,96565.50
2022-10-01T09:03:13.341Z,96563.38
2022-10-01T09:05:48.709Z,96561.50
2022-10-01T09:08:43.935Z,96554.22
2022-10-01T09:11:44.059Z,96558.84
2022-10-01T09:14:49.907Z,96550.41
2022-10-01T09:17:34.903Z,96546.88
2022-10-01T09:20:16.424Z,96544.16
2022-10-01T09:23:12.271Z,96535.03
2022-10-01T09:25:39.840Z,96550.00
2022-10-01T09:28:19.581Z,96547.88
2022-10-01T09:31:08.936Z,96548.44
2022-10-01T09:33:38.172Z,96541.00
2022-10-01T09:36:26.315Z,96546.38
2022-10-01T09:39:03.971Z,96543.44
2022-10-01T09:41:31.502Z,96538.22
2022-10-01T09:43:58.118Z,96526.75
2022-10-01T09:46:26.674Z,96530.03
2022-10-01T09:49:11.292Z,96512.22
2022-10-01T09:51:49.730Z,96507.91
2022-10-01T09:54:33.672Z,96503.25
2022-10-01T09:57:07.967Z,96509.13
2022-10-01T09:59:47.296Z,96513.66
2022-10-01T10:02:20.075Z,96529.19
2022-10-01T10:04:47.663Z,96540.72
2022-10-01T10:07:18.784Z,96549.63
2022-10-01T10:09:45.599Z,96545.91
2022-10-01T10:12:31.787Z,96545.81
2022-10-01T10:15:07.243Z,96527.63
2022-10-01T10:17:37.789Z,96523.31
2022-10-01T10:20:13.778Z,96534.44
2022-10-01T10:22:40.213Z,96539.19
2022-10-01T10:25:20.274Z,96543.63
2022-10-01T10:27:56.565Z,96547.00
2022-10-01T10:30:24.623Z,96548.56
2022-10-01T10:32:52.780Z,96548.53
2022-10-01T10:35:25.728Z,96558.78
2022-10-01T10:37:54.388Z,96567.78
2022-10-01T10:40:29.788Z,96559.13
2022-10-01T10:42:58.453Z,96539.91
2022-10-01T10:45:46.646Z,96541.91
2022-10-01T10:48:18.483Z,96548.22
2022-10-01T10:50:46.701Z,96537.28
2022-10-01T10:53:25.903Z,96541.13
2022-10-01T10:56:04.162Z,96549.13
2022-10-01T10:58:40.246Z,96535.25
2022-10-01T11:01:09.898Z,96537.41
2022-10-01T11:03:42.295Z,96526.97
2022-10-01T11:06:15.054Z,96527.75
2022-10-01T11:08:42.911Z,96522.81
2022-10-01T11:11:21.265Z,96528.06
2022-10-01T11:14:05.436Z,96524.78
2022-10-01T11:16:38.147Z,96522.53
2022-10-01T11:19:16.952Z,96532.00
2022-10-01T11:22:07.874Z,96518.78
2022-10-01T11:24:56.057Z,96523.03
2022-10-01T11:27:48.672Z,96522.94
2022-10-01T11:30:29.923Z,96508.47
2022-10-01T11:32:56.238Z,96509.25
2022-10-01T11:35:52.146Z,96512.59
2022-10-01T11:38:30.806Z,96514.78
2022-10-01T11:41:11.682Z,96509.81
2022-10-01T11:43:47.529Z,96509.34
2022-10-01T11:46:40.662Z,96505.09
2022-10-01T11:49:25.575Z,96491.88
2022-10-01T11:52:02.398Z,96499.41
2022-10-01T11:54:31.218Z,96503.91
2022-10-01T11:57:18.746Z,96507.41
2022-10-01T12:00:15.890Z,96512.13
2022-10-01T12:02:42.211Z,96507.56
2022-10-01T12:05:17.045Z,96509.03
2022-10-01T12:07:49.666Z,96503.31
2022-10-01T12:10:33.238Z,96495.84
2022-10-01T12:13:22.398Z,96505.56
2022-10-01T12:15:57.997Z,96494.34
2022-10-01T12:18:32.865Z,96473.81
2022-10-01T12:21:03.181Z,96473.81
2022-10-01T12:23:36.074Z,96465.06
2022-10-01T12:26:27.490Z,96463.47
2022-10-01T12:29:18.739Z,96467.41
2022-10-01T12:31:54.332Z,96467.59
2022-10-01T12:34:36.830Z,96446.75
2022-10-01T12:37:22.244Z,96447.06
2022-10-01T12:39:57.830Z,96435.44
2022-10-01T12:42:46.217Z,96430.00
2022-10-01T12:45:49.156Z,96425.53
2022-10-01T12:48:28.033Z,96418.63
2022-10-01T12:51:09.934Z,96411.13
2022-10-01T12:53:47.461Z,96411.91
2022-10-01T12:56:23.305Z,96420.69
2022-10-01T12:59:06.205Z,96408.06
2022-10-01T13:01:55.692Z,96406.78
2022-10-01T13:04:35.883Z,96410.50
2022-10-01T13:07:35.031Z,96398.66
2022-10-01T13:10:25.428Z,96405.06
2022-10-01T13:12:56.465Z,96407.25
2022-10-01T13:15:31.797Z,96406.72
2022-10-01T13:18:11.836Z,96406.81
2022-10-01T13:20:46.195Z,96408.09
2022-10-01T13:23:29.028Z,96399.75
2022-10-01T13:26:27.335Z,96395.88
2022-10-01T13:29:21.578Z,96398.31
2022-10-01T13:32:00.480Z,96396.84
2022-10-01T13:34:35.992Z,96416.22
2022-10-01T13:37:31.014Z,96411.88
2022-10-01T13:39:59.136Z,96412.81
2022-10-01T13:42:36.857Z,96409.53
2022-10-01T13:45:06.703Z,96399.84
2022-10-01T13:47:39.780Z,96398.41
2022-10-01T13:50:08.302Z,96398.88
2022-10-01T13:52:34.803Z,96395.31
2022-10-01T13:55:02.263Z,96400.03
2022-10-01T13:57:39.076Z,96396.47
2022-10-01T14:00:11.539Z,96395.50
2022-10-01T14:03:01.426Z,96402.75
2022-10-01T14:05:42.176Z,96391.13
2022-10-01T14:08:24.224Z,96390.63
2022-10-01T14:11:39.148Z,96390.63
2022-10-01T14:14:31.908Z,96394.41
2022-10-01T14:17:00.218Z,96378.16
2022-10-01T14:19:27.632Z,96384.53
2022-10-01T14:22:13.299Z,96392.47
2022-10-01T14:24:42.749Z,96393.69
2022-10-01T14:27:29.508Z,96380.47
2022-10-01T14:30:15.450Z,96404.78
2022-10-01T14:33:19.048Z,96402.16
2022-10-01T14:36:14.374Z,96400.16
2022-10-01T14:38:40.897Z,96410.63
2022-10-01T14:41:17.435Z,96418.16
2022-10-01T14:43:43.830Z,96430.69
2022-10-01T14:46:15.368Z,96417.19
2022-10-01T14:48:42.208Z,96414.53
2022-10-01T14:51:27.545Z,96411.41
2022-10-01T14:53:56.282Z,96421.00
2022-10-01T14:56:23.305Z,96437.78
2022-10-01T14:58:54.863Z,96430.56
2022-10-01T15:01:24.140Z,96424.44
2022-10-01T15:03:52.187Z,96424.81
2022-10-01T15:06:27.562Z,96435.47
2022-10-01T15:08:56.119Z,96425.41
2022-10-01T15:11:25.821Z,96414.75
2022-10-01T15:13:55.733Z,96422.75
2022-10-01T15:16:24.985Z,96429.16
2022-10-01T15:18:55.767Z,96420.41
2022-10-01T15:21:31.009Z,96404.09
2022-10-01T15:23:59.502Z,96397.19
2022-10-01T15:26:27.648Z,96404.69
2022-10-01T15:29:12.833Z,96395.94
2022-10-01T15:31:40.176Z,96394.03
2022-10-01T15:34:10.979Z,96397.81
2022-10-01T15:36:39.017Z,96385.75
2022-10-01T15:39:26.084Z,96388.91
2022-10-01T15:41:54.743Z,96394.25
2022-10-01T15:44:38.365Z,96401.88
2022-10-01T15:47:24.606Z,96395.38
2022-10-01T15:50:12.297Z,96387.19
2022-10-01T15:52:51.429Z,96385.34
2022-10-01T15:55:22.762Z,96385.47
2022-10-01T15:58:06.734Z,96389.03
2022-10-01T16:00:57.545Z,96379.28
2022-10-01T16:03:27.284Z,96379.41
2022-10-01T16:05:55.227Z,96384.25
2022-10-01T16:08:25.517Z,96388.41
2022-10-01T16:11:16.037Z,96391.38
2022-10-01T16:13:45.070Z,96377.09
2022-10-01T16:16:15.065Z,96386.28
2022-10-01T16:18:42.387Z,96408.78
2022-10-01T16:21:10.946Z,96399.81
2022-10-01T16:23:40.088Z,96394.78
2022-10-01T16:26:36.778Z,96395.09
2022-10-01T16:29:06.389Z,96416.97
2022-10-01T16:31:35.341Z,96426.63
2022-10-01T16:34:01.811Z,96412.34
2022-10-01T16:36:28.276Z,96416.09
2022-10-01T16:38:54.733Z,96437.97
2022-10-01T16:41:24.493Z,96435.59
2022-10-01T16:43:52.242Z,96433.72
2022-10-01T16:46:18.645Z,96441.72
2022-10-01T16:48:51.335Z,96422.13
2022-10-01T16:51:19.184Z,96417.09
2022-10-01T16:53:46.905Z,96431.78
2022-10-01T16:56:14.187Z,96458.47
2022-10-01T16:58:43.020Z,96436.50
2022-10-01T17:01:13.212Z,96434.72
2022-10-01T17:03:39.900Z,96451.09
2022-10-01T17:06:06.745Z,96447.94
2022-10-01T17:08:33.172Z,96452.84
2022-10-01T17:11:01.741Z,96457.41
2022-10-01T17:13:30.132Z,96456.31
2022-10-01T17:15:56.992Z,96455.00
2022-10-01T17:18:23.464Z,96463.31
2022-10-01T17:20:49.892Z,96475.72
2022-10-01T17:23:18.657Z,96480.31
2022-10-01T17:25:46.519Z,96462.31
2022-10-01T17:28:16.012Z,96466.34
2022-10-01T17:30:44.155Z,96493.72
2022-10-01T17:33:12.083Z,96497.47
2022-10-01T17:35:43.918Z,96514.69
2022-10-01T17:38:12.348Z,96516.63
2022-10-01T17:40:42.732Z,96502.19
2022-10-01T17:43:13.820Z,96523.25
2022-10-01T17:45:40.846Z,96532.88
2022-10-01T17:48:07.958Z,96521.72
2022-10-01T17:50:34.452Z,96508.16
2022-10-01T17:53:01.498Z,96509.81
2022-10-01T17:55:28.286Z,96512.38
2022-10-01T17:57:54.680Z,96541.94
2022-10-01T18:00:21.207Z,96542.56
2022-10-01T18:02:47.613Z,96535.25
2022-10-01T18:05:15.101Z,96535.66
2022-10-01T18:07:42.314Z,96539.00
2022-10-01T18:10:11.769Z,96535.66
2022-10-01T18:12:38.399Z,96536.34
2022-10-01T18:15:05.205Z,96532.69
2022-10-01T18:17:33.128Z,96528.25
2022-10-01T18:19:59.644Z,96527.53
2022-10-01T18:22:26.581Z,96537.94
2022-10-01T18:24:53.049Z,96544.41
2022-10-01T18:27:19.565Z,96553.69
2022-10-01T18:29:45.932Z,96555.53
2022-10-01T18:32:17.377Z,96548.38
2022-10-01T18:35:05.752Z,96555.88
2022-10-01T18:37:46.695Z,96557.50
2022-10-01T18:40:18.279Z,96557.41
2022-10-01T18:42:50.376Z,96551.56
2022-10-01T18:45:36.659Z,96553.56
2022-10-01T18:48:10.896Z,96542.09
2022-10-01T18:51:02.506Z,96530.06
2022-10-01T18:53:41.046Z,96543.19
2022-10-01T18:56:30.068Z,96539.34
2022-10-01T18:59:18.778Z,96538.22
2022-10-01T19:02:28.535Z,96542.47
2022-10-01T19:05:36.429Z,96540.69
2022-10-01T19:08:28.975Z,96541.38
2022-10-01T19:11:13.457Z,96538.72
2022-10-01T19:13:46.403Z,96546.03
2022-10-01T19:16:30.038Z,96552.50
2022-10-01T19:19:24.538Z,96558.19
2022-10-01T19:22:17.188Z,96560.47
2022-10-01T19:25:20.296Z,96550.53
2022-10-01T19:28:20.742Z,96554.69
2022-10-01T19:31:15.096Z,96562.72
2022-10-01T19:34:16.175Z,96566.00
2022-10-01T19:36:53.174Z,96566.78
2022-10-01T19:39:23.397Z,96561.19
2022-10-01T19:41:59.401Z,96561.69
2022-10-01T19:44:54.699Z,96559.19
2022-10-01T19:47:31.713Z,96552.53
2022-10-01T19:50:06.516Z,96557.69
2022-10-01T19:52:38.646Z,96553.19
2022-10-01T19:55:14.482Z,96572.03
2022-10-01T19:57:44.605Z,96576.38
2022-10-01T20:00:18.135Z,96592.19
2022-10-01T20:02:52.328Z,96604.09
2022-10-01T20:05:29.243Z,96612.19
2022-10-01T20:08:00.674Z,96610.88
2022-10-01T20:10:35.972Z,96632.69
2022-10-01T20:13:24.416Z,96646.38
2022-10-01T20:16:07.613Z,96648.81
2022-10-01T20:19:15.865Z,96653.16
2022-10-01T20:21:54.373Z,96667.63
2022-10-01T20:24:31.540Z,96653.38
2022-10-01T20:27:11.583Z,96658.97
2022-10-01T20:30:04.038Z,96666.91
2022-10-01T20:32:39.582Z,96684.19
2022-10-01T20:35:26.387Z,96680.75
2022-10-01T20:37:56.017Z,96672.00
2022-10-01T20:40:30.739Z,96669.16
2022-10-01T20:43:11.523Z,96671.69
2022-10-01T20:45:40.324Z,96670.81
2022-10-01T20:48:17.813Z,96670.78
2022-10-01T20:50:47.483Z,96662.91
2022-10-01T20:53:38.654Z,96663.63
2022-10-01T20:56:13.822Z,96649.66
2022-10-01T20:58:46.096Z,96643.91
2022-10-01T21:01:17.563Z,96643.91
2022-10-01T21:03:48.028Z,96638.66
2022-10-01T21:06:18.198Z,96643.22
2022-10-01T21:08:57.291Z,96640.69
2022-10-01T21:11:27.574Z,96644.91
2022-10-01T21:14:06.049Z,96642.81
2022-10-01T21:17:00.891Z,96654.16
2022-10-01T21:19:30.088Z,96646.16
2022-10-01T21:22:05.458Z,96646.16
2022-10-01T21:24:41.161Z,96628.50
2022-10-01T21:27:32.822Z,96631.38
2022-10-01T21:30:08.978Z,96623.47
2022-10-01T21:33:01.385Z,96629.78
2022-10-01T21:35:29.029Z,96633.97
2022-10-01T21:38:16.717Z,96633.56
2022-10-01T21:40:59.233Z,96615.94
2022-10-01T21:43:56.393Z,96660.00
2022-10-01T21:47:01.993Z,96670.16
2022-10-01T21:49:37.170Z,96683.38
2022-10-01T21:52:31.442Z,96694.50
2022-10-01T21:55:13.051Z,96699.81
2022-10-01T21:58:01.541Z,96691.31
2022-10-01T22:00:29.569Z,96705.22
2022-10-01T22:03:07.846Z,96710.53
2022-10-01T22:05:52.538Z,96721.97
2022-10-01T22:08:40.304Z,96727.00
2022-10-01T22:11:20.945Z,96723.88
2022-10-01T22:14:18.209Z,96723.84
2022-10-01T22:16:57.290Z,96727.00
2022-10-01T22:19:34.258Z,96745.53
2022-10-01T22:22:09.839Z,96729.94
2022-10-01T22:24:46.237Z,96738.19
2022-10-01T22:27:15.971Z,96740.84
2022-10-01T22:29:48.861Z,96742.16
2022-10-01T22:32:19.402Z,96730.69
2022-10-01T22:34:54.240Z,96733.97
2022-10-01T22:37:26.507Z,96727.00
2022-10-01T22:40:07.625Z,96720.22
2022-10-01T22:42:38.648Z,96700.00
2022-10-01T22:45:16.445Z,96695.25
2022-10-01T22:48:05.874Z,96693.72
2022-10-01T22:50:44.747Z,96687.84
2022-10-01T22:53:28.506Z,96682.22
2022-10-01T22:55:56.101Z,96691.28
2022-10-01T22:58:28.528Z,96689.63
2022-10-01T23:01:23.034Z,96694.13
2022-10-01T23:04:16.494Z,96696.81
2022-10-01T23:07:01.537Z,96707.56
2022-10-01T23:09:41.983Z,96715.81
2022-10-01T23:12:20.465Z,96703.72
2022-10-01T23:15:27.442Z,96717.13
2022-10-01T23:18:05.630Z,96716.94
2022-10-01T23:20:37.687Z,96730.28
2022-10-01T23:23:16.478Z,96740.88
2022-10-01T23:25:48.967Z,96749.03
2022-10-01T23:28:41.827Z,96742.16
2022-10-01T23:31:25.978Z,96745.88
2022-10-01T23:34:01.372Z,96743.47
2022-10-01T23:36:37.381Z,96739.72
2022-10-01T23:39:13.396Z,96746.34
2022-10-01T23:41:47.044Z,96745.78
2022-10-01T23:44:24.802Z,96754.03
2022-10-01T23:46:52.700Z,96764.72
2022-10-01T23:49:25.413Z,96766.84
2022-10-01T23:52:16.945Z,96767.13
2022-10-01T23:54:51.762Z,96771.44
2022-10-01T23:57:28.960Z,96787.81
2022-10-01T23:59:59.645Z,96785.44
